Time;durP1;ratioP1;P1;durP2;ratioP2;P2;SDS_P1;SDS_P2;PMS_P1;PMS_P2;Temp;Humidity;BMP_temperature;BMP_pressure;BME280_temperature;BME280_humidity;BME280_pressure;Samples;Min_cycle;Max_cycle;Signal;HPM_P1;HPM_P2
2022/06/01 00:01:21;;;;;;;1.33;0.50;;;;;;;25.37;30.84;101404.63;5104419;28;20036;-45
2022/06/01 00:03:50;;;;;;;2.53;0.70;;;;;;;25.31;30.57;101380.06;5102515;28;20035;-46
2022/06/01 00:06:19;;;;;;;2.28;0.60;;;;;;;25.38;30.54;101394.16;5104370;28;20031;-44
2022/06/01 00:08:47;;;;;;;3.58;0.50;;;;;;;25.41;30.81;101395.94;5104157;28;20058;-44
2022/06/01 00:11:16;;;;;;;1.17;0.50;;;;;;;25.42;30.75;101389.84;5103269;28;20027;-47
2022/06/01 00:13:45;;;;;;;1.58;0.60;;;;;;;25.35;30.49;101394.09;5104203;28;20028;-44
2022/06/01 00:16:13;;;;;;;1.08;0.47;;;;;;;25.36;30.94;101397.59;5102143;28;20028;-45
2022/06/01 00:18:42;;;;;;;1.25;0.45;;;;;;;25.36;30.68;101388.00;5103709;28;20100;-45
2022/06/01 00:21:11;;;;;;;2.42;0.70;;;;;;;25.38;31.07;101394.16;5103745;28;20099;-47
2022/06/01 00:23:39;;;;;;;1.05;0.55;;;;;;;25.29;30.84;101380.88;5089682;28;20031;-44
2022/06/01 00:26:08;;;;;;;1.25;0.50;;;;;;;25.29;30.71;101396.63;5103797;28;20015;-45
2022/06/01 00:28:36;;;;;;;1.08;0.60;;;;;;;25.30;31.04;101394.03;5102151;28;20491;-44
2022/06/01 00:31:05;;;;;;;0.82;0.50;;;;;;;25.26;31.11;101384.34;5103036;28;20042;-45
2022/06/01 00:33:33;;;;;;;1.00;0.47;;;;;;;25.25;30.82;101377.34;5103535;28;20038;-47
2022/06/01 00:36:03;;;;;;;2.10;0.70;;;;;;;25.23;30.98;101365.91;5103085;28;20032;-47
2022/06/01 00:38:31;;;;;;;1.45;0.45;;;;;;;25.18;31.15;101364.97;5103757;28;20027;-44
2022/06/01 00:41:00;;;;;;;1.35;0.50;;;;;;;25.24;30.97;101361.53;5103942;28;20031;-45
2022/06/01 00:43:42;;;;;;;0.45;0.40;;;;;;;25.14;30.91;101368.44;5103845;28;20081;-44
2022/06/01 00:46:11;;;;;;;1.73;0.60;;;;;;;25.13;31.23;101378.03;5104039;28;20465;-47
2022/06/01 00:48:43;;;;;;;1.88;0.50;;;;;;;25.11;31.07;101368.38;5103974;28;20481;-45
2022/06/01 00:51:14;;;;;;;0.98;0.57;;;;;;;25.13;31.10;101383.28;5101655;28;20063;-46
2022/06/01 00:53:45;;;;;;;1.80;0.70;;;;;;;25.08;31.39;101384.94;5103516;28;20491;-45
2022/06/01 00:56:17;;;;;;;1.40;0.60;;;;;;;25.10;31.28;101382.38;5103448;28;20035;-45
2022/06/01 00:58:49;;;;;;;2.65;0.50;;;;;;;25.13;31.18;101395.53;5103437;28;20028;-44
2022/06/01 01:01:20;;;;;;;1.50;0.47;;;;;;;25.12;31.31;101391.16;5103555;28;20028;-44
2022/06/01 01:03:52;;;;;;;3.22;0.40;;;;;;;25.20;31.11;101393.88;5102514;28;20058;-45
2022/06/01 01:06:33;;;;;;;1.40;0.40;;;;;;;25.13;31.27;101393.78;5103963;28;20039;-44
2022/06/01 01:09:02;;;;;;;0.98;0.43;;;;;;;25.17;31.13;101394.69;5102228;28;20047;-46
2022/06/01 01:11:33;;;;;;;1.17;0.52;;;;;;;25.16;31.21;101403.44;5103315;28;20504;-45
2022/06/01 01:14:03;;;;;;;2.75;0.50;;;;;;;25.18;30.99;101402.63;5103316;28;20027;-44
2022/06/01 01:16:34;;;;;;;1.63;0.40;;;;;;;25.07;31.06;101403.31;5103234;28;20035;-45
2022/06/01 01:19:06;;;;;;;1.92;0.50;;;;;;;25.06;31.12;101393.66;5103464;28;20401;-48
2022/06/01 01:21:46;;;;;;;0.52;0.40;;;;;;;25.06;31.33;101388.41;5102041;28;20092;-45
2022/06/01 01:24:33;;;;;;;2.05;0.70;;;;;;;25.15;31.20;101394.69;5103778;28;20586;-44
2022/06/01 01:27:02;;;;;;;1.30;0.55;;;;;;;25.11;30.80;101400.75;5094448;28;20431;-44
2022/06/01 01:29:37;;;;;;;2.45;0.43;;;;;;;25.08;31.08;101402.44;5101844;28;20024;-44
2022/06/01 01:32:07;;;;;;;0.77;0.35;;;;;;;25.11;31.26;101406.00;5085638;28;20031;-43
2022/06/01 01:34:36;;;;;;;1.90;0.50;;;;;;;25.10;30.92;101398.97;5103791;28;20418;-44
2022/06/01 01:37:07;;;;;;;1.25;0.50;;;;;;;24.99;31.14;101382.19;5101822;28;20028;-44
2022/06/01 01:39:38;;;;;;;1.40;0.45;;;;;;;25.02;30.99;101380.50;5103586;28;20103;-44
2022/06/01 01:42:07;;;;;;;1.08;0.55;;;;;;;25.05;31.34;101373.53;5094869;28;20124;-46
2022/06/01 01:44:46;;;;;;;2.33;0.45;;;;;;;25.07;31.14;101388.44;5105684;28;20472;-43
2022/06/01 01:47:14;;;;;;;1.67;0.60;;;;;;;25.00;31.45;101376.09;5107184;28;20053;-45
2022/06/01 01:49:44;;;;;;;1.20;0.40;;;;;;;25.01;31.32;101377.84;5105238;28;20035;-44
2022/06/01 01:52:15;;;;;;;1.25;0.63;;;;;;;24.96;31.31;101380.41;5104925;28;20393;-44
2022/06/01 01:54:49;;;;;;;1.73;0.60;;;;;;;24.99;30.93;101377.81;5106817;28;20066;-43
2022/06/01 01:57:25;;;;;;;1.63;0.77;;;;;;;25.07;31.22;101377.94;5106243;28;20313;-44
2022/06/01 02:00:20;;;;;;;2.05;0.57;;;;;;;25.00;31.00;101376.09;5105039;28;20114;-44
2022/06/01 02:02:53;;;;;;;1.73;0.47;;;;;;;25.08;31.01;101379.69;5103317;28;20438;-43
2022/06/01 02:06:25;;;;;;;1.65;0.30;;;;;;;25.10;31.12;101382.38;5106718;28;20413;-43
2022/06/01 02:08:54;;;;;;;1.10;0.50;;;;;;;25.07;31.04;101384.94;5099148;28;20093;-44
2022/06/01 02:14:18;;;;;;;0.98;0.40;;;;;;;25.07;30.80;101380.56;5105932;28;20039;-44
2022/06/01 02:16:55;;;;;;;2.58;0.77;;;;;;;25.05;30.88;101370.91;5106327;28;20034;-45
2022/06/01 02:19:28;;;;;;;1.15;0.50;;;;;;;25.01;31.05;101373.47;5105931;28;20031;-44
2022/06/01 02:21:59;;;;;;;1.10;0.50;;;;;;;25.00;31.10;101370.84;5104617;28;20022;-46
2022/06/01 02:24:27;;;;;;;1.23;0.63;;;;;;;24.99;30.96;101374.31;5106549;28;20027;-45
2022/06/01 02:26:57;;;;;;;1.17;0.68;;;;;;;24.98;31.06;101376.06;5105985;27;20023;-44
2022/06/01 02:29:31;;;;;;;2.17;0.47;;;;;;;24.94;31.39;101381.22;5105666;28;20024;-46
2022/06/01 02:32:00;;;;;;;2.23;0.50;;;;;;;24.97;31.23;101373.41;5104275;28;20019;-44
2022/06/01 02:34:29;;;;;;;1.05;0.50;;;;;;;24.89;31.03;101362.78;5104640;28;20519;-44
2022/06/01 02:37:01;;;;;;;1.95;0.50;;;;;;;24.99;30.82;101390.94;5104621;28;20433;-44
2022/06/01 02:39:30;;;;;;;1.17;0.35;;;;;;;25.00;30.90;101376.09;5104603;28;20362;-44
2022/06/01 02:42:26;;;;;;;1.10;0.45;;;;;;;24.86;30.72;101347.00;5104200;28;20027;-45
2022/06/01 02:44:57;;;;;;;2.35;0.57;;;;;;;24.99;30.88;101369.94;5106225;28;20106;-44
2022/06/01 02:47:26;;;;;;;1.73;0.40;;;;;;;24.96;30.83;101379.50;5105773;28;20019;-44
2022/06/01 02:49:54;;;;;;;1.20;0.40;;;;;;;24.92;30.90;101389.09;5105497;28;20027;-44
2022/06/01 02:52:24;;;;;;;1.05;0.50;;;;;;;24.90;31.23;101390.81;5105465;28;20055;-44
2022/06/01 02:54:52;;;;;;;1.70;0.40;;;;;;;24.83;31.06;101386.31;5105656;28;20062;-46
2022/06/01 02:57:21;;;;;;;2.80;0.47;;;;;;;24.91;31.00;101395.19;5105353;28;20027;-44
2022/06/01 02:59:50;;;;;;;1.50;0.40;;;;;;;24.92;31.01;101404.84;5104598;28;20431;-44
2022/06/01 03:02:19;;;;;;;1.90;0.50;;;;;;;24.91;30.96;101395.19;5105322;28;20023;-45
2022/06/01 03:04:48;;;;;;;2.92;0.57;;;;;;;24.91;30.82;101397.81;5105098;28;20024;-44
2022/06/01 03:07:16;;;;;;;1.60;0.50;;;;;;;24.85;31.09;101387.22;5105401;28;20027;-44
2022/06/01 03:09:45;;;;;;;2.05;0.40;;;;;;;24.85;31.12;101393.38;5105323;28;20023;-44
2022/06/01 03:12:14;;;;;;;1.05;0.50;;;;;;;24.78;30.85;101381.00;5105220;28;20048;-43
2022/06/01 03:14:42;;;;;;;1.60;0.77;;;;;;;24.74;30.72;101371.28;5104808;28;20031;-44
2022/06/01 03:17:11;;;;;;;1.80;0.43;;;;;;;24.86;30.84;101391.59;5104718;28;20035;-48
2022/06/01 03:19:39;;;;;;;1.35;0.60;;;;;;;24.81;30.96;101388.06;5104676;28;20035;-45
2022/06/01 03:22:08;;;;;;;1.42;0.60;;;;;;;24.82;30.80;101392.44;5104918;28;20028;-44
2022/06/01 03:24:36;;;;;;;2.35;0.63;;;;;;;24.73;30.70;101382.69;5105055;28;20115;-44
2022/06/01 03:27:05;;;;;;;2.53;0.50;;;;;;;24.85;30.77;101395.09;5105100;28;20083;-44
2022/06/01 03:29:34;;;;;;;1.52;0.45;;;;;;;24.67;30.77;101369.41;5104559;28;20023;-44
2022/06/01 03:32:02;;;;;;;1.58;0.60;;;;;;;24.72;31.11;101386.16;5104793;28;20068;-44
2022/06/01 03:34:31;;;;;;;1.20;0.30;;;;;;;24.79;30.80;101395.88;5104480;28;20184;-43
2022/06/01 03:37:00;;;;;;;2.47;0.63;;;;;;;24.82;30.79;101393.31;5104560;28;20492;-45
2022/06/01 03:39:28;;;;;;;1.42;0.30;;;;;;;24.79;30.74;101392.38;5104623;28;20055;-43
2022/06/01 03:41:59;;;;;;;0.88;0.50;;;;;;;24.75;30.45;101388.81;5104612;28;20027;-44
2022/06/01 03:47:14;;;;;;;1.10;0.45;;;;;;;24.75;30.33;101390.56;5104048;28;20040;-44
2022/06/01 03:49:43;;;;;;;3.45;0.75;;;;;;;24.76;30.74;101390.56;5104482;28;20026;-44
2022/06/01 03:52:13;;;;;;;1.30;0.32;;;;;;;24.75;30.39;101383.56;5104374;28;20110;-44
2022/06/01 03:54:41;;;;;;;1.00;0.60;;;;;;;24.70;30.52;101382.63;5104080;28;20035;-45
2022/06/01 03:57:12;;;;;;;0.50;0.28;;;;;;;24.63;30.42;101372.84;5104106;28;20030;-44
2022/06/01 03:59:41;;;;;;;0.98;0.40;;;;;;;24.70;30.60;101387.88;5103949;28;20036;-45
2022/06/01 04:02:10;;;;;;;0.47;0.28;;;;;;;24.71;30.61;101390.50;5104022;28;20340;-46
2022/06/01 04:04:38;;;;;;;1.25;0.47;;;;;;;24.69;30.37;101388.69;5102307;28;20031;-45
2022/06/01 04:07:07;;;;;;;0.82;0.30;;;;;;;24.66;30.57;101372.91;5104360;28;20036;-43
2022/06/01 04:09:35;;;;;;;1.33;0.60;;;;;;;24.70;30.60;101378.25;5104132;28;20463;-44
2022/06/01 04:12:04;;;;;;;1.42;0.35;;;;;;;24.67;30.39;101383.41;5104142;28;20047;-46
2022/06/01 04:14:33;;;;;;;1.63;0.60;;;;;;;24.64;30.12;101380.75;5104105;28;20024;-48
2022/06/01 04:17:01;;;;;;;1.52;0.50;;;;;;;24.58;30.69;101368.38;5103917;28;20140;-46
2022/06/01 04:19:30;;;;;;;1.20;0.47;;;;;;;24.66;30.43;101384.25;5104396;28;20037;-47
2022/06/01 04:21:58;;;;;;;3.33;0.52;;;;;;;24.64;30.17;101385.09;5103458;28;20035;-44
2022/06/01 04:24:29;;;;;;;1.77;0.65;;;;;;;24.64;30.37;101377.22;5103667;28;20023;-43
2022/06/01 04:26:58;;;;;;;3.10;0.57;;;;;;;24.60;30.21;101362.28;5103902;28;20024;-44
2022/06/01 04:29:27;;;;;;;1.52;0.40;;;;;;;24.65;30.64;101381.63;5104034;28;20031;-45
2022/06/01 04:32:02;;;;;;;1.95;0.40;;;;;;;24.63;30.21;101371.13;5103657;28;20023;-44
2022/06/01 04:34:31;;;;;;;1.33;0.50;;;;;;;24.65;30.68;101379.91;5103705;28;20186;-45
2022/06/01 04:36:59;;;;;;;0.95;0.50;;;;;;;24.64;30.19;101372.88;5103658;28;20261;-44
2022/06/01 04:39:28;;;;;;;2.30;0.55;;;;;;;24.67;30.52;101383.41;5103840;28;20024;-44
2022/06/01 04:41:56;;;;;;;0.60;0.30;;;;;;;24.63;30.16;101380.72;5104098;28;20034;-45
2022/06/01 04:44:25;;;;;;;0.85;0.52;;;;;;;24.61;30.15;101385.03;5103620;28;20028;-44
2022/06/01 04:46:53;;;;;;;3.28;0.40;;;;;;;24.61;30.60;101383.31;5103169;28;20032;-44
2022/06/01 04:49:22;;;;;;;0.68;0.30;;;;;;;24.64;30.22;101390.34;5103560;28;20028;-44
2022/06/01 04:51:51;;;;;;;1.15;0.38;;;;;;;24.55;30.63;101385.81;5103379;28;20388;-46
2022/06/01 04:54:19;;;;;;;1.48;0.50;;;;;;;24.55;30.64;101377.94;5104271;28;20042;-45
2022/06/01 04:56:48;;;;;;;1.42;0.80;;;;;;;24.60;30.13;101386.78;5103789;28;20098;-49
2022/06/01 04:59:17;;;;;;;1.85;0.60;;;;;;;24.52;30.31;101385.75;5103663;28;20028;-45
2022/06/01 05:01:46;;;;;;;1.23;0.50;;;;;;;24.58;30.49;101392.00;5085391;28;20430;-44
2022/06/01 05:04:15;;;;;;;0.85;0.32;;;;;;;24.54;30.19;101397.16;5103390;28;20433;-43
2022/06/01 05:06:44;;;;;;;1.50;0.50;;;;;;;24.57;30.40;101391.97;5103606;28;20088;-44
2022/06/01 05:09:12;;;;;;;0.95;0.52;;;;;;;24.63;30.37;101391.19;5103449;28;20024;-45
2022/06/01 05:11:41;;;;;;;1.40;0.50;;;;;;;24.58;30.55;101394.63;5102937;28;20071;-45
2022/06/01 05:14:09;;;;;;;3.22;0.63;;;;;;;24.62;30.06;101385.09;5103173;28;20871;-44
2022/06/01 05:16:38;;;;;;;2.15;0.70;;;;;;;24.65;30.35;101389.50;5105299;28;20035;-45
2022/06/01 05:19:06;;;;;;;1.75;0.77;;;;;;;24.65;30.09;101386.88;5107070;28;20035;-45
2022/06/01 05:21:35;;;;;;;1.05;0.30;;;;;;;24.65;30.05;101387.75;5106847;28;20034;-45
2022/06/01 05:24:03;;;;;;;2.25;0.50;;;;;;;24.50;30.45;101379.59;5107093;28;20066;-45
2022/06/01 05:26:31;;;;;;;0.50;0.30;;;;;;;24.55;30.59;101386.72;5107056;28;20036;-44
2022/06/01 05:28:59;;;;;;;0.65;0.40;;;;;;;24.60;30.23;101383.28;5106203;28;20481;-44
2022/06/01 05:31:28;;;;;;;0.90;0.40;;;;;;;24.65;30.36;101379.91;5107187;28;20036;-45
2022/06/01 05:33:56;;;;;;;0.20;0.20;;;;;;;24.69;30.04;101372.94;5107188;28;20035;-44
2022/06/01 05:36:24;;;;;;;0.85;0.43;;;;;;;24.74;30.42;101368.66;5106828;28;20061;-45
2022/06/01 05:38:53;;;;;;;1.20;0.40;;;;;;;24.83;30.12;101381.06;5106862;28;20027;-45
2022/06/01 05:41:21;;;;;;;0.68;0.25;;;;;;;24.86;30.36;101378.50;5106555;28;20115;-45
2022/06/01 05:43:51;;;;;;;2.10;0.40;;;;;;;24.94;30.49;101375.97;5106852;28;20762;-46
2022/06/01 05:46:20;;;;;;;0.50;0.25;;;;;;;24.98;30.08;101378.69;5106817;28;20084;-46
2022/06/01 05:48:48;;;;;;;1.83;0.43;;;;;;;25.01;30.35;101377.84;5106607;28;20074;-45
2022/06/01 05:51:16;;;;;;;1.33;0.32;;;;;;;25.09;30.35;101378.84;5106634;28;20496;-46
2022/06/01 05:53:45;;;;;;;2.92;0.55;;;;;;;25.10;30.58;101379.72;5106382;28;20122;-45
2022/06/01 05:56:13;;;;;;;0.80;0.40;;;;;;;25.17;30.68;101373.69;5106490;28;20488;-44
2022/06/01 05:58:41;;;;;;;0.82;0.50;;;;;;;25.22;30.50;101372.03;5106426;28;20044;-46
2022/06/01 06:01:10;;;;;;;3.30;0.77;;;;;;;25.28;30.81;101366.88;5106797;28;20058;-47
2022/06/01 06:03:38;;;;;;;2.22;0.47;;;;;;;25.35;30.34;101383.59;5106140;28;20034;-44
2022/06/01 06:06:25;;;;;;;3.35;0.50;;;;;;;25.37;30.58;101380.97;5106314;28;20032;-44
2022/06/01 06:08:56;;;;;;;4.93;0.60;;;;;;;25.38;30.80;101369.63;5106614;28;20067;-44
2022/06/01 06:11:29;;;;;;;3.03;0.60;;;;;;;25.51;30.66;101378.59;5105980;28;20110;-47
2022/06/01 06:13:58;;;;;;;2.72;0.90;;;;;;;25.55;30.87;101381.25;5106696;28;20130;-44
2022/06/01 06:16:28;;;;;;;3.85;0.68;;;;;;;25.55;30.74;101380.38;5106405;28;20031;-45
2022/06/01 06:18:57;;;;;;;1.58;0.52;;;;;;;25.67;31.01;101384.91;5106432;28;20032;-46
2022/06/01 06:21:26;;;;;;;1.90;0.40;;;;;;;25.68;31.07;101384.03;5106447;28;20031;-44
2022/06/01 06:23:54;;;;;;;3.15;1.02;;;;;;;25.75;30.76;101384.13;5106469;28;20023;-45
2022/06/01 06:26:23;;;;;;;3.28;0.63;;;;;;;25.66;30.97;101362.09;5106207;28;20019;-48
2022/06/01 06:28:50;;;;;;;1.05;0.52;;;;;;;25.74;30.80;101373.59;5105046;28;20055;-44
2022/06/01 06:31:17;;;;;;;2.33;0.50;;;;;;;25.80;31.07;101384.22;5105912;28;20020;-45
2022/06/01 06:33:45;;;;;;;2.67;0.55;;;;;;;25.77;31.14;101384.16;5106068;28;20114;-48
2022/06/01 06:36:14;;;;;;;2.05;0.30;;;;;;;25.79;30.87;101382.44;5106269;28;20073;-44
2022/06/01 06:38:43;;;;;;;1.85;0.50;;;;;;;25.92;30.73;101404.47;5106335;27;20027;-45
2022/06/01 06:41:12;;;;;;;1.95;0.20;;;;;;;25.91;31.04;101389.56;5105970;28;20316;-44
2022/06/01 06:43:41;;;;;;;1.42;0.30;;;;;;;25.99;31.01;101402.78;5106044;28;20029;-46
2022/06/01 06:46:12;;;;;;;1.23;0.50;;;;;;;26.03;31.20;101405.50;5105648;28;20503;-47
2022/06/01 06:48:41;;;;;;;3.10;0.85;;;;;;;26.11;31.04;101409.94;5105537;27;20035;-48
2022/06/01 06:51:10;;;;;;;1.40;0.50;;;;;;;26.07;31.08;101406.41;5105719;28;20219;-45
2022/06/01 06:53:38;;;;;;;4.40;0.57;;;;;;;26.16;31.06;101417.03;5105572;28;20051;-47
2022/06/01 06:56:07;;;;;;;0.93;0.30;;;;;;;26.21;31.02;101415.34;5105348;28;20027;-45
2022/06/01 06:58:37;;;;;;;2.80;0.40;;;;;;;26.24;31.15;101409.22;5105840;28;20385;-47
2022/06/01 07:01:06;;;;;;;3.42;0.95;;;;;;;26.34;30.95;101420.72;5105274;28;20476;-47
2022/06/01 07:03:35;;;;;;;1.23;0.57;;;;;;;26.41;31.04;101411.16;5105157;28;20032;-44
2022/06/01 07:06:12;;;;;;;1.20;0.45;;;;;;;26.42;31.11;101411.19;5105475;28;20024;-45
2022/06/01 07:08:44;;;;;;;2.88;0.30;;;;;;;26.51;30.93;101428.81;5104924;28;20431;-47
2022/06/01 07:11:13;;;;;;;2.22;0.70;;;;;;;26.49;31.05;101426.16;5105399;28;20027;-44
2022/06/01 07:13:42;;;;;;;6.07;0.75;;;;;;;26.60;30.95;101425.38;5105362;28;20028;-44
2022/06/01 07:16:14;;;;;;;1.92;0.70;;;;;;;26.63;31.26;101420.16;5103822;28;20023;-45
2022/06/01 07:18:45;;;;;;;3.25;1.33;;;;;;;26.71;31.02;101426.34;5103346;28;20034;-45
2022/06/01 07:21:14;;;;;;;2.42;0.50;;;;;;;26.78;31.03;101424.66;5104947;28;20031;-47
2022/06/01 07:23:43;;;;;;;0.90;0.30;;;;;;;26.78;30.95;101427.28;5105395;28;20028;-45
2022/06/01 07:26:16;;;;;;;2.30;0.55;;;;;;;26.83;31.17;101433.50;5105074;28;20035;-46
2022/06/01 07:28:44;;;;;;;2.58;0.38;;;;;;;26.85;31.14;101426.50;5103899;28;20492;-49
2022/06/01 07:31:11;;;;;;;1.20;0.60;;;;;;;26.92;31.01;101430.94;5105025;28;20028;-48
2022/06/01 07:33:40;;;;;;;1.23;0.47;;;;;;;26.96;31.15;101423.97;5104781;28;20028;-49
2022/06/01 07:36:10;;;;;;;2.58;1.15;;;;;;;26.98;30.85;101420.47;5105005;28;20028;-45
2022/06/01 07:44:26;;;;;;;1.75;0.50;;;;;;;27.19;31.03;101428.50;5104291;28;20067;-45
2022/06/01 07:46:55;;;;;;;2.08;0.55;;;;;;;27.20;30.67;101419.72;5104507;28;20089;-44
2022/06/01 07:49:23;;;;;;;1.42;0.60;;;;;;;27.20;30.73;101409.19;5104336;28;20027;-45
2022/06/01 07:51:53;;;;;;;1.08;0.50;;;;;;;27.28;30.66;101423.31;5104540;28;20544;-45
2022/06/01 07:54:22;;;;;;;2.28;0.55;;;;;;;27.33;30.65;101412.78;5104414;28;20024;-45
2022/06/01 07:56:51;;;;;;;1.48;0.50;;;;;;;27.40;31.12;101417.19;5104106;28;20101;-45
2022/06/01 07:59:19;;;;;;;1.08;0.40;;;;;;;27.37;30.74;101406.69;5103688;28;20100;-45
2022/06/01 08:01:47;;;;;;;3.60;0.68;;;;;;;27.45;30.66;101410.22;5103933;28;20038;-47
2022/06/01 08:04:16;;;;;;;3.97;0.50;;;;;;;27.51;30.60;101407.66;5104492;28;20635;-45
2022/06/01 08:06:44;;;;;;;2.00;0.65;;;;;;;27.54;30.54;101404.16;5103948;28;20499;-45
2022/06/01 08:09:13;;;;;;;1.30;0.50;;;;;;;27.59;30.45;101402.44;5104324;28;20134;-45
2022/06/01 08:14:31;;;;;;;3.13;0.60;;;;;;;27.64;30.30;101395.41;5099713;28;20035;-44
2022/06/01 08:16:59;;;;;;;0.82;0.40;;;;;;;27.65;30.38;101393.66;5104008;28;20752;-49
2022/06/01 08:19:28;;;;;;;2.58;0.70;;;;;;;27.65;29.85;101389.25;5104100;28;20069;-44
2022/06/01 08:21:56;;;;;;;1.30;0.40;;;;;;;27.70;29.97;101395.44;5103947;28;20284;-44
2022/06/01 08:24:25;;;;;;;3.15;0.90;;;;;;;27.69;29.61;101395.44;5104421;28;20031;-46
2022/06/01 08:26:56;;;;;;;2.72;0.82;;;;;;;27.69;29.81;101392.81;5103819;28;20065;-45
2022/06/01 08:29:24;;;;;;;1.63;0.40;;;;;;;27.68;29.61;101389.28;5103864;28;20068;-44
2022/06/01 08:31:52;;;;;;;1.85;0.68;;;;;;;27.66;29.64;101396.28;5104099;28;20020;-45
2022/06/01 08:34:21;;;;;;;1.23;0.50;;;;;;;27.70;29.36;101397.19;5104088;28;20038;-43
2022/06/01 08:36:49;;;;;;;3.15;0.70;;;;;;;27.70;29.33;101392.78;5104106;28;20031;-46
2022/06/01 08:39:18;;;;;;;2.90;0.63;;;;;;;27.71;28.75;101396.34;5103550;28;20385;-47
2022/06/01 08:41:46;;;;;;;1.55;0.47;;;;;;;27.74;29.11;101391.03;5103585;28;20087;-45
2022/06/01 08:44:34;;;;;;;1.23;0.50;;;;;;;27.77;28.93;101384.91;5102348;28;20023;-46
2022/06/01 08:47:07;;;;;;;1.02;0.40;;;;;;;27.80;29.10;101387.56;5103137;28;20035;-44
2022/06/01 08:49:38;;;;;;;2.63;0.50;;;;;;;27.78;28.98;101392.81;5103709;28;20301;-46
2022/06/01 08:52:07;;;;;;;1.85;0.35;;;;;;;27.83;28.88;101392.84;5106264;28;20055;-49
2022/06/01 08:54:36;;;;;;;1.17;0.50;;;;;;;27.81;28.92;101382.28;5107189;28;20027;-46
2022/06/01 08:57:09;;;;;;;5.80;0.95;;;;;;;27.82;28.61;101375.25;5107939;28;20035;-48
2022/06/01 09:00:01;;;;;;;2.65;0.90;;;;;;;27.80;28.48;101380.53;5107721;28;20053;-45
2022/06/01 09:03:07;;;;;;;1.35;0.32;;;;;;;27.85;27.83;101383.19;5104942;28;20046;-47
2022/06/01 09:05:45;;;;;;;1.42;0.52;;;;;;;27.80;28.07;101390.22;5107453;28;20381;-46
2022/06/01 09:08:37;;;;;;;0.93;0.40;;;;;;;27.79;27.27;101381.41;5107820;28;20027;-49
2022/06/01 09:11:08;;;;;;;1.05;0.55;;;;;;;27.77;27.73;101382.28;5104235;28;20438;-47
2022/06/01 09:13:46;;;;;;;2.20;0.65;;;;;;;27.81;27.78;101387.56;5106277;28;20043;-47
2022/06/01 09:16:18;;;;;;;4.93;0.57;;;;;;;27.78;27.71;101376.13;5107864;28;20481;-46
2022/06/01 09:18:49;;;;;;;0.50;0.38;;;;;;;27.83;27.75;101377.91;5106346;28;21181;-45
2022/06/01 09:24:30;;;;;;;3.30;0.50;;;;;;;27.86;27.69;101374.41;5106735;28;20546;-48
2022/06/01 09:27:02;;;;;;;2.63;0.50;;;;;;;27.77;27.24;101369.97;5107705;28;20039;-45
2022/06/01 09:29:32;;;;;;;1.85;0.55;;;;;;;27.79;27.58;101367.38;5107518;28;20024;-45
2022/06/01 09:32:07;;;;;;;2.97;0.70;;;;;;;27.82;27.75;101362.97;5107042;28;20035;-48
2022/06/01 09:34:36;;;;;;;;;;;;;;;27.94;27.57;101371.78;5107741;28;20085;-49
2022/06/01 09:37:10;;;;;;;3.05;0.70;;;;;;;27.96;27.22;101377.94;5107227;28;20513;-48
2022/06/01 09:39:39;;;;;;;3.73;0.90;;;;;;;27.89;27.51;101374.41;5104835;28;20137;-46
2022/06/01 09:42:12;;;;;;;3.33;0.68;;;;;;;27.92;27.78;101374.44;5100558;28;20016;-49
2022/06/01 09:44:46;;;;;;;4.03;0.57;;;;;;;27.93;27.37;101364.75;5102798;28;20028;-47
2022/06/01 09:47:27;;;;;;;2.15;0.75;;;;;;;27.90;26.85;101370.91;5102784;28;21103;-45
2022/06/01 09:49:57;;;;;;;3.10;0.50;;;;;;;27.83;26.79;101356.81;5103158;28;20042;-45
2022/06/01 09:52:44;;;;;;;2.60;0.60;;;;;;;27.90;27.75;101363.00;5104523;28;20027;-46
2022/06/01 09:55:19;;;;;;;2.25;0.82;;;;;;;27.93;27.59;101365.63;5104831;28;20793;-44
2022/06/01 09:58:01;;;;;;;1.50;0.50;;;;;;;27.94;27.65;101369.13;5106320;28;20366;-48
2022/06/01 10:06:36;;;;;;;2.33;0.50;;;;;;;28.00;26.88;101374.44;5083435;28;20048;-49
2022/06/01 10:09:20;;;;;;;1.77;0.75;;;;;;;28.00;27.44;101375.31;5105499;28;20452;-47
2022/06/01 10:11:51;;;;;;;1.08;0.40;;;;;;;27.98;27.11;101369.16;5106446;28;20032;-44
2022/06/01 10:14:22;;;;;;;1.75;0.50;;;;;;;28.01;27.25;101374.44;5098412;28;20449;-46
2022/06/01 10:17:06;;;;;;;1.35;0.40;;;;;;;28.00;27.16;101371.81;5106657;28;20042;-47
2022/06/01 10:19:40;;;;;;;2.15;0.50;;;;;;;27.94;27.38;101361.22;5105665;28;20419;-44
2022/06/01 10:22:12;;;;;;;1.17;0.40;;;;;;;28.01;26.80;101369.16;5103902;28;20037;-48
2022/06/01 10:24:44;;;;;;;3.85;1.05;;;;;;;28.05;27.20;101378.84;5106305;28;20107;-44
2022/06/01 10:27:14;;;;;;;1.33;0.50;;;;;;;28.00;26.75;101379.72;5106001;28;20074;-45
2022/06/01 10:29:46;;;;;;;4.13;0.60;;;;;;;28.07;26.61;101380.59;5106340;28;20067;-46
2022/06/01 10:32:30;;;;;;;2.13;0.50;;;;;;;28.00;26.85;101379.72;5104456;28;20109;-45
2022/06/01 10:35:22;;;;;;;1.38;0.40;;;;;;;27.99;26.63;101381.47;5121677;27;20034;-51
2022/06/01 10:38:00;;;;;;;1.02;0.60;;;;;;;28.00;26.90;101385.84;5106387;28;20043;-50
2022/06/01 10:40:52;;;;;;;2.58;0.80;;;;;;;28.01;26.90;101392.91;5106177;28;20080;-48
2022/06/01 10:43:50;;;;;;;1.63;0.73;;;;;;;28.02;26.77;101396.44;5101877;28;20046;-48
2022/06/01 10:46:31;;;;;;;1.77;0.50;;;;;;;28.00;27.37;101395.53;5103766;28;20400;-46
2022/06/01 10:49:19;;;;;;;3.63;0.70;;;;;;;27.97;27.28;101395.53;5104277;28;20055;-48
2022/06/01 10:52:00;;;;;;;2.30;0.68;;;;;;;27.94;27.52;101384.97;5102642;28;20039;-49
2022/06/01 10:54:35;;;;;;;1.17;0.60;;;;;;;27.96;27.67;101385.84;5103761;28;20023;-47
2022/06/01 10:57:09;;;;;;;3.65;0.88;;;;;;;27.98;27.66;101390.25;5104104;28;20092;-46
2022/06/01 10:59:38;;;;;;;1.80;0.70;;;;;;;28.07;27.76;101384.09;5105455;28;20022;-49
2022/06/01 11:02:26;;;;;;;1.98;0.50;;;;;;;28.15;27.83;101379.78;5104040;28;20036;-47
2022/06/01 11:05:04;;;;;;;2.05;0.50;;;;;;;28.12;27.89;101369.22;5105449;28;20020;-49
2022/06/01 11:07:59;;;;;;;1.83;0.65;;;;;;;28.17;27.68;101375.41;5104060;28;20103;-46
2022/06/01 11:10:46;;;;;;;1.40;0.55;;;;;;;28.17;27.34;101361.31;5095766;28;20044;-48
2022/06/01 11:13:37;;;;;;;2.08;0.32;;;;;;;28.17;27.65;101356.03;5101655;28;20053;-48
2022/06/01 11:16:28;;;;;;;1.67;0.57;;;;;;;28.15;27.27;101361.31;5099572;28;20035;-47
2022/06/01 11:19:00;;;;;;;1.17;0.50;;;;;;;28.17;27.58;101367.47;5101921;28;20120;-48
2022/06/01 11:21:32;;;;;;;3.75;0.30;;;;;;;28.18;27.23;101369.25;5105149;28;20024;-46
2022/06/01 11:24:23;;;;;;;1.98;0.40;;;;;;;28.17;27.67;101367.47;5103794;28;20043;-45
2022/06/01 11:27:09;;;;;;;3.40;0.60;;;;;;;28.19;27.79;101364.81;5105110;28;20131;-44
2022/06/01 11:29:57;;;;;;;1.00;0.40;;;;;;;28.20;27.47;101362.22;5105055;28;20485;-45
2022/06/01 11:32:42;;;;;;;1.25;0.60;;;;;;;28.20;27.39;101361.31;5105150;28;20055;-44
2022/06/01 11:35:15;;;;;;;4.25;0.43;;;;;;;28.17;27.42;101354.28;5087253;28;20027;-46
2022/06/01 11:37:45;;;;;;;1.10;0.30;;;;;;;28.19;27.54;101343.72;5103410;28;20027;-48
2022/06/01 11:40:18;;;;;;;2.13;0.60;;;;;;;28.11;27.24;101342.84;5104647;28;20027;-46
2022/06/01 11:42:54;;;;;;;2.75;0.38;;;;;;;28.05;27.56;101343.66;5105008;27;20051;-48
2022/06/01 11:45:30;;;;;;;3.20;0.60;;;;;;;28.17;27.58;101340.22;5104715;27;20122;-46
2022/06/01 11:48:04;;;;;;;2.00;0.45;;;;;;;28.16;27.82;101346.34;5103368;28;20056;-47
2022/06/01 11:51:10;;;;;;;1.88;0.55;;;;;;;28.15;27.62;101344.59;5104628;28;20031;-45
2022/06/01 11:54:08;;;;;;;4.60;0.68;;;;;;;28.17;27.47;101350.75;5104282;28;20091;-44
2022/06/01 11:56:45;;;;;;;1.88;0.70;;;;;;;28.21;27.58;101360.44;5100755;28;20494;-49
2022/06/01 11:59:24;;;;;;;1.75;0.43;;;;;;;28.23;27.52;101356.06;5102889;28;20020;-46
2022/06/01 12:03:10;;;;;;;3.20;0.50;;;;;;;28.08;27.69;101367.41;5104488;28;20031;-45
2022/06/01 12:05:41;;;;;;;2.20;0.70;;;;;;;28.18;27.08;101355.16;5099910;28;20362;-45
2022/06/01 12:08:18;;;;;;;3.58;0.77;;;;;;;28.16;27.11;101355.16;5104565;28;20043;-48
2022/06/01 12:11:06;;;;;;;1.38;0.60;;;;;;;28.19;26.81;101349.00;5102826;28;20027;-49
2022/06/01 12:13:53;;;;;;;2.40;0.60;;;;;;;28.00;27.57;101324.34;5102959;28;20044;-51